createdAt,value
2023-03-09T00:01:42.924Z,9.53
2023-03-09T00:04:15.741Z,9.32
2023-03-09T00:06:45.668Z,9.44
2023-03-09T00:09:15.587Z,9.30
2023-03-09T00:11:44.905Z,9.58
2023-03-09T00:14:14.173Z,9.50
2023-03-09T00:16:43.374Z,9.52
2023-03-09T00:19:13.436Z,9.37
2023-03-09T00:21:42.792Z,9.57
2023-03-09T00:24:15.734Z,9.46
2023-03-09T00:26:46.106Z,9.41
2023-03-09T00:29:14.930Z,9.59
2023-03-09T00:31:43.921Z,9.46
2023-03-09T00:34:15.616Z,9.50
2023-03-09T00:36:43.715Z,9.58
2023-03-09T00:39:12.915Z,9.50
2023-03-09T00:41:41.846Z,9.47
2023-03-09T00:44:10.833Z,9.27
2023-03-09T00:46:40.024Z,9.39
2023-03-09T00:49:09.646Z,9.21
2023-03-09T00:51:39.495Z,9.32
2023-03-09T00:54:08.665Z,9.28
2023-03-09T00:56:37.393Z,9.56
2023-03-09T00:59:06.030Z,9.39
2023-03-09T01:01:35.582Z,9.36
2023-03-09T01:04:04.472Z,9.27
2023-03-09T01:06:33.095Z,9.17
2023-03-09T01:09:03.322Z,9.37
2023-03-09T01:11:31.646Z,9.48
2023-03-09T01:13:59.739Z,9.51
2023-03-09T01:16:28.696Z,9.46
2023-03-09T01:18:57.112Z,9.42
2023-03-09T01:21:25.101Z,9.15
2023-03-09T01:23:54.070Z,9.36
2023-03-09T01:26:23.642Z,9.42
2023-03-09T01:28:52.239Z,9.32
2023-03-09T01:31:20.969Z,9.31
2023-03-09T01:33:50.762Z,9.41
2023-03-09T01:36:21.484Z,9.23
2023-03-09T01:38:50.272Z,9.11
2023-03-09T01:41:20.412Z,9.30
2023-03-09T01:43:52.298Z,9.61
2023-03-09T01:46:38.564Z,9.72
2023-03-09T01:49:20.374Z,9.50
2023-03-09T01:51:53.632Z,9.39
2023-03-09T01:54:26.435Z,9.50
2023-03-09T01:56:57.496Z,9.25
2023-03-09T01:59:30.868Z,9.38
2023-03-09T02:02:00.068Z,9.25
2023-03-09T02:04:34.422Z,9.17
2023-03-09T02:07:03.385Z,8.81
2023-03-09T02:09:40.282Z,9.11
2023-03-09T02:12:11.591Z,9.07
2023-03-09T02:14:41.939Z,9.16
2023-03-09T02:17:12.802Z,9.29
2023-03-09T02:19:56.330Z,9.31
2023-03-09T02:22:24.589Z,9.29
2023-03-09T02:25:04.240Z,9.27
2023-03-09T02:27:35.704Z,9.34
2023-03-09T02:30:04.902Z,9.40
2023-03-09T02:32:33.981Z,9.43
2023-03-09T02:35:02.173Z,9.64
2023-03-09T02:37:34.859Z,9.69
2023-03-09T02:40:12.992Z,9.79
2023-03-09T02:42:44.593Z,9.72
2023-03-09T02:45:15.557Z,9.77
2023-03-09T02:47:43.561Z,9.89
2023-03-09T02:50:13.109Z,9.92
2023-03-09T02:52:41.596Z,9.77
2023-03-09T02:55:10.419Z,9.73
2023-03-09T02:57:39.110Z,9.74
2023-03-09T03:00:10.688Z,9.77
2023-03-09T03:02:39.451Z,9.71
2023-03-09T03:05:09.700Z,9.99
2023-03-09T03:07:37.932Z,9.81
2023-03-09T03:10:07.229Z,9.61
2023-03-09T03:12:35.430Z,9.53
2023-03-09T03:15:03.921Z,9.66
2023-03-09T03:17:33.980Z,9.57
2023-03-09T03:20:02.186Z,9.68
2023-03-09T03:22:30.277Z,9.66
2023-03-09T03:24:58.950Z,9.67
2023-03-09T03:27:27.114Z,9.62
2023-03-09T03:29:55.291Z,9.59
2023-03-09T03:32:23.915Z,9.50
2023-03-09T03:34:53.391Z,9.55
2023-03-09T03:37:21.714Z,9.48
2023-03-09T03:39:50.445Z,9.60
2023-03-09T03:42:18.537Z,9.73
2023-03-09T03:44:46.606Z,9.84
2023-03-09T03:47:15.215Z,9.76
2023-03-09T03:49:43.418Z,9.75
2023-03-09T03:52:15.572Z,9.69
2023-03-09T03:54:44.090Z,9.64
2023-03-09T03:57:12.072Z,9.68
2023-03-09T03:59:40.048Z,9.82
2023-03-09T04:02:08.837Z,9.64
2023-03-09T04:04:37.384Z,9.69
2023-03-09T04:07:05.668Z,9.69
2023-03-09T04:09:35.739Z,9.90
2023-03-09T04:12:05.742Z,9.78
2023-03-09T04:14:35.587Z,9.66
2023-03-09T04:17:03.807Z,9.86
2023-03-09T04:19:32.020Z,9.89
2023-03-09T04:22:00.547Z,9.82
2023-03-09T04:24:28.650Z,10.02
2023-03-09T04:26:58.078Z,9.97
2023-03-09T04:29:26.592Z,9.88
2023-03-09T04:31:54.564Z,9.80
2023-03-09T04:34:22.790Z,9.82
2023-03-09T04:36:51.476Z,9.68
2023-03-09T04:39:19.607Z,9.87
2023-03-09T04:41:47.753Z,10.10
2023-03-09T04:44:17.656Z,10.08
2023-03-09T04:46:45.896Z,10.07
2023-03-09T04:49:14.581Z,10.10
2023-03-09T04:51:43.222Z,10.02
2023-03-09T04:54:11.748Z,10.02
2023-03-09T04:56:40.066Z,9.91
2023-03-09T04:59:15.080Z,9.94
2023-03-09T05:01:44.657Z,9.90
2023-03-09T05:04:12.897Z,9.89
2023-03-09T05:06:41.506Z,9.82
2023-03-09T05:09:10.092Z,9.81
2023-03-09T05:11:38.165Z,9.81
2023-03-09T05:14:06.817Z,9.85
2023-03-09T05:16:35.141Z,9.81
2023-03-09T05:19:04.749Z,9.98
2023-03-09T05:21:34.253Z,10.08
2023-03-09T05:24:02.489Z,9.98
2023-03-09T05:26:31.023Z,9.92
2023-03-09T05:28:59.766Z,9.89
2023-03-09T05:31:28.026Z,10.02
2023-03-09T05:33:56.394Z,9.80
2023-03-09T05:36:28.412Z,9.89
2023-03-09T05:38:56.522Z,9.89
2023-03-09T05:41:24.762Z,9.99
2023-03-09T05:43:53.858Z,9.67
2023-03-09T05:46:24.649Z,9.84
2023-03-09T05:48:53.531Z,9.93
2023-03-09T05:51:21.674Z,9.79
2023-03-09T05:53:51.099Z,9.77
2023-03-09T05:56:19.773Z,9.92
2023-03-09T05:58:51.858Z,9.89
2023-03-09T06:01:22.756Z,9.62
2023-03-09T06:03:54.262Z,9.79
2023-03-09T06:06:22.929Z,9.74
2023-03-09T06:08:52.447Z,9.76
2023-03-09T06:11:20.942Z,9.77
2023-03-09T06:13:49.917Z,9.91
2023-03-09T06:16:19.062Z,9.93
2023-03-09T06:18:47.745Z,9.95
2023-03-09T06:21:16.818Z,10.03
2023-03-09T06:23:45.065Z,9.93
2023-03-09T06:26:16.485Z,10.12
2023-03-09T06:28:50.986Z,9.96
2023-03-09T06:31:20.919Z,10.00
2023-03-09T06:33:50.639Z,10.08
2023-03-09T06:36:20.833Z,10.13
2023-03-09T06:38:49.596Z,10.10
2023-03-09T06:41:28.836Z,9.95
2023-03-09T06:43:57.278Z,9.90
2023-03-09T06:46:25.728Z,10.07
2023-03-09T06:48:58.284Z,10.25
2023-03-09T06:51:26.474Z,10.23
2023-03-09T06:53:55.118Z,10.21
2023-03-09T06:56:25.178Z,10.20
2023-03-09T06:58:55.603Z,10.36
2023-03-09T07:01:24.433Z,10.32
2023-03-09T07:03:53.469Z,10.53
2023-03-09T07:06:21.981Z,10.78
2023-03-09T07:08:50.942Z,10.97
2023-03-09T07:11:19.369Z,11.22
2023-03-09T07:13:51.172Z,11.38
2023-03-09T07:16:20.059Z,11.58
2023-03-09T07:18:48.325Z,11.52
2023-03-09T07:21:17.952Z,11.48
2023-03-09T07:23:46.845Z,11.55
2023-03-09T07:26:15.472Z,11.72
2023-03-09T07:28:44.320Z,11.50
2023-03-09T07:31:15.628Z,11.49
2023-03-09T07:33:44.037Z,11.45
2023-03-09T07:36:13.140Z,11.70
2023-03-09T07:38:41.839Z,11.70
2023-03-09T07:41:10.437Z,11.75
2023-03-09T07:43:45.479Z,11.88
2023-03-09T07:46:16.596Z,12.04
2023-03-09T07:48:47.967Z,11.71
2023-03-09T07:51:16.479Z,11.81
2023-03-09T07:53:45.055Z,11.44
2023-03-09T07:56:14.950Z,11.55
2023-03-09T07:58:44.591Z,11.43
2023-03-09T08:01:25.064Z,11.43
2023-03-09T08:03:53.734Z,11.25
2023-03-09T08:06:23.130Z,11.49
2023-03-09T08:08:52.009Z,11.21
2023-03-09T08:11:21.128Z,11.32
2023-03-09T08:13:51.960Z,11.15
2023-03-09T08:16:22.716Z,11.21
2023-03-09T08:18:56.945Z,11.12
2023-03-09T08:21:27.306Z,11.48
2023-03-09T08:23:57.266Z,11.65
2023-03-09T08:26:26.651Z,11.36
2023-03-09T08:28:57.125Z,11.05
2023-03-09T08:31:29.555Z,10.94
2023-03-09T08:33:58.587Z,10.81
2023-03-09T08:36:27.700Z,10.73
2023-03-09T08:38:55.942Z,10.93
2023-03-09T08:41:25.682Z,10.78
2023-03-09T08:43:57.236Z,11.08
2023-03-09T08:46:27.558Z,11.43
2023-03-09T08:48:57.542Z,11.23
2023-03-09T08:51:26.702Z,11.40
2023-03-09T08:53:55.354Z,11.82
2023-03-09T08:56:24.256Z,12.11
2023-03-09T08:58:53.445Z,12.01
2023-03-09T09:01:21.945Z,12.05
2023-03-09T09:03:52.361Z,12.09
2023-03-09T09:06:21.648Z,12.39
2023-03-09T09:08:50.748Z,12.83
2023-03-09T09:11:19.949Z,12.75
2023-03-09T09:13:48.348Z,12.63
2023-03-09T09:16:18.103Z,12.78
2023-03-09T09:18:46.980Z,13.16
2023-03-09T09:21:19.535Z,12.43
2023-03-09T09:23:50.165Z,12.35
2023-03-09T09:26:22.893Z,12.04
2023-03-09T09:28:52.654Z,12.10
2023-03-09T09:31:22.411Z,11.84
2023-03-09T09:33:51.193Z,11.24
2023-03-09T09:36:22.124Z,11.34
2023-03-09T09:38:50.513Z,11.53
2023-03-09T09:41:22.385Z,11.18
2023-03-09T09:43:53.358Z,11.51
2023-03-09T09:46:24.678Z,11.41
2023-03-09T09:48:53.392Z,11.38
2023-03-09T09:54:31.468Z,11.39
2023-03-09T09:57:03.997Z,11.62
2023-03-09T09:59:40.275Z,11.55
2023-03-09T10:02:24.993Z,11.71
2023-03-09T10:05:05.004Z,11.35
2023-03-09T10:07:38.848Z,11.63
2023-03-09T10:10:19.232Z,11.42
2023-03-09T10:12:48.638Z,11.53
2023-03-09T10:15:26.584Z,11.23
2023-03-09T10:17:59.865Z,11.35
2023-03-09T10:20:36.232Z,11.48
2023-03-09T10:23:20.082Z,11.42
2023-03-09T10:25:54.676Z,11.39
2023-03-09T10:28:27.685Z,11.36
2023-03-09T10:31:03.799Z,11.75
2023-03-09T10:33:42.278Z,12.17
2023-03-09T10:36:17.358Z,12.05
2023-03-09T10:38:46.117Z,12.20
2023-03-09T10:41:20.638Z,12.22
2023-03-09T10:43:49.904Z,12.12
2023-03-09T10:46:21.653Z,12.64
2023-03-09T10:48:53.248Z,12.43
2023-03-09T10:51:28.157Z,12.45
2023-03-09T10:53:59.313Z,12.22
2023-03-09T10:56:32.392Z,11.96
2023-03-09T10:59:16.392Z,12.61
2023-03-09T11:01:47.073Z,12.45
2023-03-09T11:04:31.709Z,12.49
2023-03-09T11:07:01.292Z,12.61
2023-03-09T11:09:33.502Z,12.54
2023-03-09T11:12:37.222Z,12.94
2023-03-09T11:15:25.863Z,13.32
2023-03-09T11:17:56.078Z,13.21
2023-03-09T11:20:34.206Z,13.23
2023-03-09T11:23:14.778Z,13.43
2023-03-09T11:25:55.382Z,13.81
2023-03-09T11:28:34.205Z,13.74
2023-03-09T11:31:03.161Z,13.37
2023-03-09T11:33:33.266Z,13.11
2023-03-09T11:36:02.924Z,12.84
2023-03-09T11:38:33.131Z,12.77
2023-03-09T11:41:10.340Z,12.53
2023-03-09T11:43:44.487Z,12.27
2023-03-09T11:46:20.181Z,12.12
2023-03-09T11:48:53.262Z,12.47
2023-03-09T11:51:27.602Z,12.65
2023-03-09T11:54:04.716Z,13.05
2023-03-09T11:56:36.918Z,12.89
2023-03-09T11:59:13.820Z,12.79
2023-03-09T12:01:48.299Z,12.50
2023-03-09T12:04:18.965Z,12.42
2023-03-09T12:06:59.942Z,12.59
2023-03-09T12:09:35.060Z,12.54
2023-03-09T12:12:15.182Z,12.68
2023-03-09T12:14:51.047Z,12.54
2023-03-09T12:17:23.817Z,12.58
2023-03-09T12:20:11.568Z,12.47
2023-03-09T12:22:43.927Z,12.20
2023-03-09T12:25:24.134Z,12.28
2023-03-09T12:27:56.572Z,12.16
2023-03-09T12:30:31.622Z,12.11
2023-03-09T12:33:02.400Z,12.95
2023-03-09T12:36:06.369Z,12.89
2023-03-09T12:38:35.402Z,12.99
2023-03-09T12:41:03.888Z,13.05
2023-03-09T12:43:53.942Z,13.47
2023-03-09T12:46:52.607Z,13.18
2023-03-09T12:49:25.733Z,12.99
2023-03-09T12:52:35.574Z,13.24
2023-03-09T12:55:14.265Z,13.00
2023-03-09T12:57:42.885Z,13.56
2023-03-09T13:00:32.843Z,14.03
2023-03-09T13:03:09.021Z,14.17
2023-03-09T13:05:47.361Z,14.84
2023-03-09T13:08:27.189Z,14.45
2023-03-09T13:11:24.662Z,14.30
2023-03-09T13:13:53.547Z,14.01
2023-03-09T13:16:53.736Z,13.93
2023-03-09T13:19:57.411Z,13.99
2023-03-09T13:22:43.320Z,13.88
2023-03-09T13:25:25.583Z,13.91
2023-03-09T13:28:04.786Z,13.86
2023-03-09T13:30:37.213Z,14.05
2023-03-09T13:33:12.602Z,14.24
2023-03-09T13:35:57.270Z,14.03
2023-03-09T13:38:31.269Z,14.27
2023-03-09T13:41:01.626Z,13.65
2023-03-09T13:43:32.875Z,13.74
2023-03-09T13:46:08.833Z,13.75
2023-03-09T13:48:45.405Z,13.31
2023-03-09T13:51:37.728Z,12.92
2023-03-09T13:54:07.937Z,12.89
2023-03-09T13:56:36.164Z,12.71
2023-03-09T13:59:05.632Z,13.09
2023-03-09T14:01:34.625Z,13.54
2023-03-09T14:04:03.307Z,13.51
2023-03-09T14:09:34.062Z,12.91
2023-03-09T14:12:03.983Z,12.68
2023-03-09T14:14:34.031Z,12.45
2023-03-09T14:17:02.469Z,12.49
2023-03-09T14:19:33.129Z,12.59
2023-03-09T14:22:03.539Z,12.86
2023-03-09T14:24:34.882Z,12.64
2023-03-09T14:27:22.537Z,12.72
2023-03-09T14:29:52.311Z,12.68
2023-03-09T14:32:25.067Z,12.79
2023-03-09T14:34:55.252Z,12.92
2023-03-09T14:37:27.857Z,12.77
2023-03-09T14:40:00.466Z,12.96
2023-03-09T14:42:31.663Z,13.15
2023-03-09T14:45:25.673Z,13.19
2023-03-09T14:47:58.752Z,13.17
2023-03-09T14:50:28.732Z,13.45
2023-03-09T14:52:58.376Z,13.63
2023-03-09T14:55:27.001Z,13.49
2023-03-09T14:57:56.376Z,13.51
2023-03-09T15:00:26.482Z,13.43
2023-03-09T15:02:55.731Z,13.58
2023-03-09T15:05:27.372Z,13.58
2023-03-09T15:07:55.772Z,13.49
2023-03-09T15:10:26.838Z,13.56
2023-03-09T15:12:56.618Z,13.41
2023-03-09T15:15:27.429Z,13.68
2023-03-09T15:17:58.167Z,13.52
2023-03-09T15:20:43.753Z,13.40
2023-03-09T15:23:14.103Z,13.28
2023-03-09T15:25:44.759Z,13.05
2023-03-09T15:28:13.787Z,13.18
2023-03-09T15:30:42.684Z,13.28
2023-03-09T15:33:12.204Z,13.28
2023-03-09T15:35:44.100Z,13.25
2023-03-09T15:38:12.342Z,13.44
2023-03-09T15:40:44.556Z,13.37
2023-03-09T15:43:12.788Z,13.49
2023-03-09T15:45:45.401Z,13.29
2023-03-09T15:48:14.322Z,13.34
2023-03-09T15:50:42.704Z,13.10
2023-03-09T15:53:11.580Z,12.68
2023-03-09T15:55:39.665Z,12.35
2023-03-09T15:58:09.337Z,12.11
2023-03-09T16:00:38.481Z,12.00
2023-03-09T16:03:07.497Z,11.79
2023-03-09T16:05:35.882Z,11.75
2023-03-09T16:08:04.773Z,11.72
2023-03-09T16:10:33.151Z,11.88
2023-03-09T16:13:01.509Z,11.83
2023-03-09T16:15:31.646Z,11.69
2023-03-09T16:17:59.849Z,11.81
2023-03-09T16:20:28.609Z,11.85
2023-03-09T16:22:57.399Z,11.99
2023-03-09T16:25:26.600Z,12.08
2023-03-09T16:27:54.954Z,11.88
2023-03-09T16:30:24.173Z,12.01
2023-03-09T16:32:55.600Z,11.84
2023-03-09T16:35:27.030Z,11.78
2023-03-09T16:37:56.667Z,11.97
2023-03-09T16:40:25.056Z,11.77
2023-03-09T16:42:53.901Z,11.62
2023-03-09T16:45:23.022Z,11.68
2023-03-09T16:47:55.650Z,11.66
2023-03-09T16:50:26.646Z,11.75
2023-03-09T16:52:55.223Z,11.78
2023-03-09T16:55:25.166Z,11.73
2023-03-09T16:57:53.708Z,11.61
2023-03-09T17:00:23.908Z,11.24
2023-03-09T17:02:53.050Z,11.42
2023-03-09T17:05:21.506Z,11.45
2023-03-09T17:07:51.518Z,11.28
2023-03-09T17:10:22.652Z,11.27
2023-03-09T17:12:50.870Z,11.12
2023-03-09T17:15:19.335Z,11.10
2023-03-09T17:17:48.438Z,10.90
2023-03-09T17:20:16.697Z,10.88
2023-03-09T17:22:45.504Z,10.79
2023-03-09T17:25:20.815Z,10.73
2023-03-09T17:27:51.756Z,10.64
2023-03-09T17:30:24.853Z,10.66
2023-03-09T17:32:56.618Z,10.63
2023-03-09T17:35:25.825Z,10.52
2023-03-09T17:37:54.685Z,10.51
2023-03-09T17:40:24.539Z,10.65
2023-03-09T17:42:53.490Z,10.80
2023-03-09T17:45:22.061Z,10.85
2023-03-09T17:47:50.623Z,10.98
2023-03-09T17:50:19.236Z,10.85
2023-03-09T17:52:47.618Z,10.82
2023-03-09T17:55:16.054Z,10.78
2023-03-09T17:57:46.149Z,10.66
2023-03-09T18:00:16.327Z,10.73
2023-03-09T18:02:44.570Z,10.69
2023-03-09T18:05:13.771Z,10.71
2023-03-09T18:07:41.984Z,10.71
2023-03-09T18:10:14.576Z,10.82
2023-03-09T18:12:42.796Z,10.68
2023-03-09T18:15:12.965Z,10.69
2023-03-09T18:17:41.477Z,10.88
2023-03-09T18:20:11.363Z,10.91
2023-03-09T18:22:40.298Z,10.98
2023-03-09T18:25:09.261Z,11.00
2023-03-09T18:27:38.241Z,11.00
2023-03-09T18:30:08.769Z,11.05
2023-03-09T18:32:39.391Z,10.80
2023-03-09T18:35:08.554Z,10.92
2023-03-09T18:37:38.654Z,10.97
2023-03-09T18:40:10.090Z,10.88
2023-03-09T18:42:38.304Z,10.88
2023-03-09T18:45:07.366Z,10.75
2023-03-09T18:47:35.968Z,10.70
2023-03-09T18:50:07.147Z,10.68
2023-03-09T18:52:35.951Z,10.76
2023-03-09T18:55:05.009Z,10.73
2023-03-09T18:57:34.174Z,10.70
2023-03-09T19:00:02.942Z,10.43
2023-03-09T19:02:31.442Z,10.58
2023-03-09T19:05:00.363Z,10.61
2023-03-09T19:07:30.865Z,10.55
2023-03-09T19:09:59.140Z,10.55
2023-03-09T19:12:27.655Z,10.46
2023-03-09T19:14:56.874Z,10.55
2023-03-09T19:17:26.660Z,10.38
2023-03-09T19:19:55.293Z,10.43
2023-03-09T19:22:24.616Z,10.46
2023-03-09T19:24:54.370Z,10.45
2023-03-09T19:27:22.789Z,10.26
2023-03-09T19:29:51.602Z,10.23
2023-03-09T19:32:20.082Z,10.17
2023-03-09T19:34:48.415Z,10.23
2023-03-09T19:37:17.172Z,10.19
2023-03-09T19:39:45.984Z,10.18
2023-03-09T19:42:15.585Z,10.16
2023-03-09T19:44:45.819Z,10.04
2023-03-09T19:47:14.033Z,10.05
2023-03-09T19:49:42.430Z,9.95
2023-03-09T19:52:11.254Z,9.88
2023-03-09T19:54:39.366Z,9.93
2023-03-09T19:57:07.927Z,9.95
2023-03-09T19:59:38.343Z,9.92
2023-03-09T20:02:07.991Z,10.02
2023-03-09T20:04:36.375Z,10.26
2023-03-09T20:07:05.329Z,10.19
2023-03-09T20:09:34.622Z,10.09
2023-03-09T20:12:03.839Z,10.12
2023-03-09T20:14:32.362Z,9.99
2023-03-09T20:17:04.524Z,9.90
2023-03-09T20:19:33.328Z,10.00
2023-03-09T20:22:03.320Z,9.97
2023-03-09T20:24:32.325Z,10.06
2023-03-09T20:27:00.849Z,10.03
2023-03-09T20:29:32.009Z,10.05
2023-03-09T20:32:03.261Z,9.97
2023-03-09T20:34:31.431Z,9.88
2023-03-09T20:36:59.903Z,9.93
2023-03-09T20:39:28.895Z,9.95
2023-03-09T20:41:57.960Z,9.93
2023-03-09T20:44:26.137Z,9.95
2023-03-09T20:46:55.021Z,9.71
2023-03-09T20:49:25.331Z,9.86
2023-03-09T20:51:53.734Z,9.71
2023-03-09T20:54:25.637Z,9.64
2023-03-09T20:56:53.846Z,9.66
2023-03-09T20:59:23.101Z,9.64
2023-03-09T21:01:52.486Z,9.56
2023-03-09T21:04:20.807Z,9.61
2023-03-09T21:06:51.192Z,9.38
2023-03-09T21:09:22.178Z,9.24
2023-03-09T21:11:51.549Z,9.25
2023-03-09T21:14:22.098Z,9.23
2023-03-09T21:16:50.436Z,9.14
2023-03-09T21:19:19.179Z,9.10
2023-03-09T21:21:47.708Z,9.06
2023-03-09T21:24:18.054Z,8.96
2023-03-09T21:26:47.413Z,8.94
2023-03-09T21:29:16.479Z,8.94
2023-03-09T21:31:45.158Z,8.88
2023-03-09T21:34:13.809Z,8.80
2023-03-09T21:36:42.210Z,8.69
2023-03-09T21:39:11.257Z,8.63
2023-03-09T21:41:40.782Z,8.70
2023-03-09T21:44:09.836Z,8.79
2023-03-09T21:46:38.657Z,8.77
2023-03-09T21:49:06.943Z,8.96
2023-03-09T21:51:36.039Z,9.15
2023-03-09T21:54:04.923Z,9.25
2023-03-09T21:56:33.652Z,9.36
2023-03-09T21:59:05.285Z,9.35
2023-03-09T22:01:33.786Z,9.35
2023-03-09T22:04:02.101Z,9.31
2023-03-09T22:06:33.388Z,9.47
2023-03-09T22:09:03.353Z,9.61
2023-03-09T22:11:34.011Z,9.70
2023-03-09T22:14:05.779Z,9.78
2023-03-09T22:16:36.780Z,9.98
2023-03-09T22:19:07.119Z,9.92
2023-03-09T22:21:36.300Z,9.66
2023-03-09T22:24:06.795Z,9.42
2023-03-09T22:26:35.838Z,9.41
2023-03-09T22:29:05.854Z,9.44
2023-03-09T22:31:35.669Z,9.44
2023-03-09T22:34:06.012Z,9.33
2023-03-09T22:36:36.341Z,9.53
2023-03-09T22:39:06.288Z,9.48
2023-03-09T22:41:34.930Z,9.45
2023-03-09T22:44:04.145Z,9.37
2023-03-09T22:46:37.607Z,9.46
2023-03-09T22:49:07.042Z,9.27
2023-03-09T22:51:35.727Z,9.27
2023-03-09T22:54:04.093Z,9.12
2023-03-09T22:56:32.969Z,9.21
2023-03-09T22:59:01.375Z,9.23
2023-03-09T23:01:32.028Z,9.27
2023-03-09T23:04:03.080Z,9.35
2023-03-09T23:06:31.685Z,9.24
2023-03-09T23:09:01.461Z,9.52
2023-03-09T23:11:32.452Z,9.34
2023-03-09T23:14:01.279Z,9.35
2023-03-09T23:16:29.579Z,9.44
2023-03-09T23:18:58.529Z,9.41
2023-03-09T23:21:28.133Z,9.33
2023-03-09T23:23:56.523Z,9.35
2023-03-09T23:26:25.736Z,9.48
2023-03-09T23:28:54.383Z,9.41
2023-03-09T23:31:23.577Z,9.48
2023-03-09T23:33:52.812Z,9.55
2023-03-09T23:36:25.793Z,9.63
2023-03-09T23:38:56.320Z,9.67
2023-03-09T23:41:24.653Z,9.71
2023-03-09T23:43:52.874Z,9.69
2023-03-09T23:46:21.981Z,9.55
2023-03-09T23:48:51.817Z,9.58
2023-03-09T23:51:22.777Z,9.62
2023-03-09T23:53:51.567Z,9.50
2023-03-09T23:56:23.271Z,9.64
2023-03-09T23:58:53.310Z,9.73
